createdAt,value
2023-05-08T00:01:27.075Z,12.70
2023-05-08T00:03:56.161Z,12.73
2023-05-08T00:06:24.532Z,12.66
2023-05-08T00:08:53.133Z,12.49
2023-05-08T00:11:23.544Z,12.61
2023-05-08T00:13:53.339Z,12.51
2023-05-08T00:16:21.827Z,12.48
2023-05-08T00:18:50.697Z,12.56
2023-05-08T00:21:19.226Z,12.33
2023-05-08T00:23:47.744Z,12.18
2023-05-08T00:26:16.700Z,12.48
2023-05-08T00:28:46.427Z,12.60
2023-05-08T00:31:15.467Z,12.60
2023-05-08T00:33:43.774Z,12.10
2023-05-08T00:36:12.593Z,12.34
2023-05-08T00:38:41.274Z,12.22
2023-05-08T00:41:09.752Z,12.39
2023-05-08T00:43:40.198Z,12.42
2023-05-08T00:46:12.089Z,12.27
2023-05-08T00:48:41.920Z,11.98
2023-05-08T00:51:11.539Z,12.22
2023-05-08T00:53:45.832Z,12.10
2023-05-08T00:56:16.044Z,12.02
2023-05-08T00:58:46.381Z,12.38
2023-05-08T01:01:17.024Z,11.91
2023-05-08T01:03:46.588Z,11.86
2023-05-08T01:06:15.001Z,12.11
2023-05-08T01:08:45.473Z,11.75
2023-05-08T01:11:20.080Z,11.63
2023-05-08T01:13:59.463Z,11.87
2023-05-08T01:16:40.448Z,11.94
2023-05-08T01:19:33.811Z,11.86
2023-05-08T01:22:13.597Z,11.71
2023-05-08T01:25:06.867Z,11.81
2023-05-08T01:28:09.956Z,11.91
2023-05-08T01:31:04.153Z,11.69
2023-05-08T01:33:37.392Z,11.89
2023-05-08T01:36:18.757Z,11.56
2023-05-08T01:38:55.785Z,12.05
2023-05-08T01:41:29.120Z,11.84
2023-05-08T01:44:11.875Z,11.85
2023-05-08T01:46:40.471Z,11.57
2023-05-08T01:49:18.844Z,11.52
2023-05-08T01:51:58.344Z,11.75
2023-05-08T01:54:30.940Z,11.92
2023-05-08T01:57:03.427Z,11.61
2023-05-08T01:59:35.733Z,11.85
2023-05-08T02:02:05.140Z,11.63
2023-05-08T02:04:38.520Z,11.43
2023-05-08T02:07:08.211Z,11.70
2023-05-08T02:09:36.982Z,11.43
2023-05-08T02:12:08.625Z,11.74
2023-05-08T02:14:38.887Z,11.70
2023-05-08T02:17:10.739Z,11.54
2023-05-08T02:19:42.742Z,11.61
2023-05-08T02:22:12.539Z,11.50
2023-05-08T02:24:46.236Z,11.58
2023-05-08T02:27:16.783Z,11.38
2023-05-08T02:29:46.020Z,11.07
2023-05-08T02:32:16.822Z,11.34
2023-05-08T02:34:58.882Z,11.26
2023-05-08T02:37:32.006Z,11.28
2023-05-08T02:40:00.723Z,11.02
2023-05-08T02:42:29.559Z,11.04
2023-05-08T02:44:57.713Z,11.08
2023-05-08T02:47:31.592Z,11.12
2023-05-08T02:50:11.591Z,11.08
2023-05-08T02:52:46.413Z,11.09
2023-05-08T02:55:23.898Z,11.23
2023-05-08T02:58:07.162Z,11.12
2023-05-08T03:00:43.661Z,11.12
2023-05-08T03:03:19.951Z,11.18
2023-05-08T03:05:53.914Z,11.36
2023-05-08T03:08:27.779Z,10.97
2023-05-08T03:11:00.572Z,11.09
2023-05-08T03:13:34.086Z,10.98
2023-05-08T03:16:05.742Z,10.85
2023-05-08T03:18:37.996Z,11.06
2023-05-08T03:21:11.120Z,10.96
2023-05-08T03:23:42.472Z,11.00
2023-05-08T03:26:13.559Z,11.01
2023-05-08T03:28:42.425Z,10.79
2023-05-08T03:31:13.926Z,10.92
2023-05-08T03:33:45.494Z,10.97
2023-05-08T03:36:16.108Z,10.92
2023-05-08T03:38:45.621Z,11.08
2023-05-08T03:41:14.875Z,10.84
2023-05-08T03:43:43.579Z,10.73
2023-05-08T03:46:13.273Z,10.92
2023-05-08T03:48:42.745Z,10.73
2023-05-08T03:51:12.220Z,10.68
2023-05-08T03:53:42.987Z,10.61
2023-05-08T03:56:12.074Z,10.90
2023-05-08T03:58:46.848Z,10.92
2023-05-08T04:01:25.017Z,10.84
2023-05-08T04:04:03.492Z,11.34
2023-05-08T04:06:48.500Z,11.09
2023-05-08T04:09:26.593Z,11.04
2023-05-08T04:12:04.318Z,10.82
2023-05-08T04:14:42.914Z,11.41
2023-05-08T04:17:16.444Z,11.66
2023-05-08T04:19:52.168Z,11.31
2023-05-08T04:22:24.346Z,11.15
2023-05-08T04:25:00.395Z,11.22
2023-05-08T04:27:30.777Z,11.55
2023-05-08T04:29:59.791Z,11.21
2023-05-08T04:32:30.391Z,11.36
2023-05-08T04:35:00.582Z,11.92
2023-05-08T04:37:32.034Z,11.64
2023-05-08T04:40:02.610Z,12.16
2023-05-08T04:42:31.488Z,12.16
2023-05-08T04:45:00.717Z,11.88
2023-05-08T04:47:29.806Z,11.96
2023-05-08T04:49:59.545Z,12.45
2023-05-08T04:52:30.576Z,12.38
2023-05-08T04:55:00.157Z,12.24
2023-05-08T04:57:31.518Z,12.69
2023-05-08T05:00:00.793Z,12.53
2023-05-08T05:02:42.506Z,12.43
2023-05-08T05:05:14.632Z,12.69
2023-05-08T05:07:48.263Z,13.26
2023-05-08T05:10:21.828Z,13.30
2023-05-08T05:12:56.756Z,12.33
2023-05-08T05:15:29.033Z,12.60
2023-05-08T05:18:03.716Z,12.11
2023-05-08T05:20:36.678Z,13.01
2023-05-08T05:23:16.625Z,13.57
2023-05-08T05:25:49.580Z,13.69
2023-05-08T05:28:28.795Z,12.47
2023-05-08T05:31:01.357Z,12.25
2023-05-08T05:33:37.091Z,13.10
2023-05-08T05:36:10.068Z,12.64
2023-05-08T05:38:47.857Z,13.14
2023-05-08T05:41:20.588Z,13.64
2023-05-08T05:43:53.574Z,14.20
2023-05-08T05:46:40.971Z,13.78
2023-05-08T05:49:19.169Z,13.22
2023-05-08T05:51:52.159Z,13.17
2023-05-08T05:54:24.981Z,14.29
2023-05-08T05:56:56.938Z,13.65
2023-05-08T05:59:31.636Z,14.07
2023-05-08T06:02:00.381Z,14.56
2023-05-08T06:04:29.464Z,14.25
2023-05-08T06:06:59.018Z,14.22
2023-05-08T06:09:32.141Z,15.36
2023-05-08T06:12:07.043Z,14.94
2023-05-08T06:14:37.270Z,14.07
2023-05-08T06:17:06.122Z,14.42
2023-05-08T06:19:35.357Z,15.00
2023-05-08T06:22:07.445Z,15.75
2023-05-08T06:24:42.055Z,15.00
2023-05-08T06:27:19.782Z,15.02
2023-05-08T06:29:52.366Z,15.73
2023-05-08T06:32:30.411Z,15.84
2023-05-08T06:35:14.525Z,15.51
2023-05-08T06:38:04.775Z,16.28
2023-05-08T06:40:40.753Z,17.42
2023-05-08T06:43:14.375Z,16.43
2023-05-08T06:45:53.989Z,18.13
2023-05-08T06:48:26.079Z,17.89
2023-05-08T06:51:01.793Z,17.08
2023-05-08T06:53:34.106Z,16.92
2023-05-08T06:59:27.106Z,17.44
2023-05-08T07:04:59.618Z,18.12
2023-05-08T07:07:29.966Z,19.29
2023-05-08T07:10:07.800Z,17.28
2023-05-08T07:12:40.088Z,17.24
2023-05-08T07:16:10.338Z,18.79
2023-05-08T07:18:50.679Z,17.49
2023-05-08T07:22:00.740Z,17.39
2023-05-08T07:31:38.862Z,19.95
2023-05-08T07:34:16.836Z,18.56
2023-05-08T07:36:48.081Z,19.86
2023-05-08T07:39:34.737Z,17.65
2023-05-08T07:42:11.676Z,17.73
2023-05-08T07:45:11.098Z,19.00
2023-05-08T07:48:03.958Z,17.22
2023-05-08T07:51:00.253Z,17.89
2023-05-08T07:53:48.093Z,20.02
2023-05-08T07:56:20.260Z,18.47
2023-05-08T07:58:49.889Z,19.17
2023-05-08T08:01:19.160Z,19.56
2023-05-08T08:03:51.372Z,20.54
2023-05-08T08:06:25.131Z,20.86
2023-05-08T08:11:41.995Z,22.63
2023-05-08T08:14:15.800Z,23.63
2023-05-08T08:16:55.397Z,22.71
2023-05-08T08:19:27.201Z,23.11
2023-05-08T08:22:27.364Z,24.46
2023-05-08T08:40:01.155Z,26.06
2023-05-08T08:42:39.292Z,27.39
2023-05-08T08:45:55.580Z,25.74
2023-05-08T08:51:53.400Z,26.63
2023-05-08T08:54:29.451Z,29.65
2023-05-08T08:57:09.153Z,29.37
2023-05-08T08:59:46.994Z,25.07
2023-05-08T09:02:18.765Z,25.34
2023-05-08T09:04:54.983Z,28.23
2023-05-08T09:07:27.756Z,27.14
2023-05-08T09:10:21.778Z,26.86
2023-05-08T09:13:00.534Z,25.28
2023-05-08T09:15:34.918Z,25.13
2023-05-08T09:18:05.335Z,21.79
2023-05-08T09:20:37.882Z,22.67
2023-05-08T09:23:12.099Z,22.96
2023-05-08T09:25:44.713Z,25.30
2023-05-08T09:28:28.963Z,24.32
2023-05-08T09:31:03.562Z,23.32
2023-05-08T09:33:32.957Z,23.63
2023-05-08T09:36:04.846Z,23.18
2023-05-08T09:38:47.633Z,25.18
2023-05-08T09:41:20.139Z,25.43
2023-05-08T09:44:04.569Z,25.90
2023-05-08T09:46:39.529Z,23.89
2023-05-08T09:49:25.296Z,24.00
2023-05-08T09:52:28.715Z,26.12
2023-05-08T09:55:13.571Z,26.28
2023-05-08T09:57:58.610Z,25.62
2023-05-08T10:00:51.530Z,24.44
2023-05-08T10:03:49.946Z,25.10
2023-05-08T10:06:44.366Z,24.70
2023-05-08T10:09:14.485Z,25.10
2023-05-08T10:12:10.706Z,25.60
2023-05-08T10:14:46.910Z,24.60
2023-05-08T10:17:36.406Z,24.80
2023-05-08T10:20:12.380Z,26.00
2023-05-08T10:23:01.380Z,25.99
2023-05-08T10:25:47.770Z,25.68
2023-05-08T10:28:30.908Z,24.78
2023-05-08T10:31:30.833Z,26.60
2023-05-08T10:34:04.409Z,27.48
2023-05-08T10:36:35.761Z,26.09
2023-05-08T10:39:08.181Z,25.14
2023-05-08T10:41:38.379Z,27.34
2023-05-08T10:44:08.762Z,25.92
2023-05-08T10:46:47.403Z,27.40
2023-05-08T10:49:26.612Z,25.71
2023-05-08T10:52:08.875Z,27.29
2023-05-08T10:54:50.866Z,26.53
2023-05-08T10:57:19.364Z,25.24
2023-05-08T10:59:49.320Z,24.55
2023-05-08T11:02:17.752Z,25.54
2023-05-08T11:04:50.255Z,25.54
2023-05-08T11:07:18.812Z,26.29
2023-05-08T11:09:48.709Z,25.60
2023-05-08T11:12:25.168Z,24.77
2023-05-08T11:15:03.173Z,24.31
2023-05-08T11:17:33.043Z,24.78
2023-05-08T11:20:04.052Z,24.49
2023-05-08T11:22:34.669Z,25.69
2023-05-08T11:25:07.247Z,25.57
2023-05-08T11:27:39.764Z,25.03
2023-05-08T11:30:22.489Z,26.20
2023-05-08T11:33:14.877Z,25.96
2023-05-08T11:35:51.184Z,24.48
2023-05-08T11:38:22.947Z,24.23
2023-05-08T11:40:58.356Z,24.29
2023-05-08T11:43:42.112Z,24.22
2023-05-08T11:46:17.094Z,24.47
2023-05-08T11:48:46.612Z,23.90
2023-05-08T11:51:19.455Z,22.85
2023-05-08T11:53:49.619Z,23.59
2023-05-08T11:56:18.581Z,24.64
2023-05-08T11:58:47.863Z,23.81
2023-05-08T12:01:22.412Z,23.39
2023-05-08T12:04:01.428Z,23.80
2023-05-08T12:06:33.984Z,24.57
2023-05-08T12:09:05.032Z,25.44
2023-05-08T12:11:34.820Z,24.98
2023-05-08T12:14:03.752Z,25.17
2023-05-08T12:16:37.164Z,24.54
2023-05-08T12:19:06.415Z,23.76
2023-05-08T12:21:38.291Z,24.77
2023-05-08T12:24:13.008Z,23.52
2023-05-08T12:26:42.971Z,24.23
2023-05-08T12:29:11.926Z,24.55
2023-05-08T12:31:47.852Z,24.16
2023-05-08T12:34:18.073Z,23.72
2023-05-08T12:36:49.242Z,24.26
2023-05-08T12:39:20.490Z,23.61
2023-05-08T12:41:50.970Z,24.08
2023-05-08T12:44:22.080Z,23.89
2023-05-08T12:46:56.795Z,24.46
2023-05-08T12:49:28.860Z,24.42
2023-05-08T12:52:07.761Z,25.69
2023-05-08T12:54:37.887Z,24.32
2023-05-08T12:57:12.655Z,23.36
2023-05-08T12:59:42.191Z,23.12
2023-05-08T13:02:17.910Z,23.58
2023-05-08T13:04:49.369Z,24.47
2023-05-08T13:07:23.437Z,23.82
2023-05-08T13:10:09.529Z,23.33
2023-05-08T13:12:41.829Z,23.94
2023-05-08T13:15:13.667Z,23.59
2023-05-08T13:17:43.344Z,22.20
2023-05-08T13:20:14.902Z,23.19
2023-05-08T13:22:47.667Z,22.51
2023-05-08T13:25:16.523Z,22.68
2023-05-08T13:27:45.810Z,22.46
2023-05-08T13:30:26.443Z,22.11
2023-05-08T13:46:34.511Z,23.06
2023-05-08T13:49:06.273Z,23.27
2023-05-08T13:51:36.849Z,23.45
2023-05-08T13:54:09.831Z,22.87
2023-05-08T13:56:44.537Z,23.30
2023-05-08T13:59:16.160Z,22.04
2023-05-08T14:01:48.405Z,22.58
2023-05-08T14:04:21.919Z,22.58
2023-05-08T14:06:52.061Z,22.25
2023-05-08T14:09:26.037Z,22.56
2023-05-08T14:12:00.692Z,22.39
2023-05-08T14:14:39.826Z,22.46
2023-05-08T14:17:15.358Z,23.19
2023-05-08T14:19:54.434Z,23.05
2023-05-08T14:22:28.830Z,23.03
2023-05-08T14:25:03.582Z,23.36
2023-05-08T14:27:36.254Z,22.79
2023-05-08T14:30:09.335Z,22.74
2023-05-08T14:32:42.468Z,22.05
2023-05-08T14:35:12.467Z,22.80
2023-05-08T14:37:44.230Z,22.01
2023-05-08T14:40:13.878Z,22.11
2023-05-08T14:42:48.226Z,21.49
2023-05-08T14:45:24.311Z,21.53
2023-05-08T14:47:56.938Z,21.84
2023-05-08T14:50:27.690Z,21.99
2023-05-08T14:52:57.201Z,21.85
2023-05-08T14:55:26.327Z,22.67
2023-05-08T14:57:55.134Z,22.28
2023-05-08T15:00:25.994Z,21.57
2023-05-08T15:02:55.478Z,21.61
2023-05-08T15:05:28.454Z,21.30
2023-05-08T15:08:03.493Z,21.19
2023-05-08T15:10:32.600Z,21.09
2023-05-08T15:13:01.867Z,20.96
2023-05-08T15:15:32.959Z,21.35
2023-05-08T15:18:06.201Z,20.62
2023-05-08T15:20:36.204Z,20.59
2023-05-08T15:23:10.246Z,20.71
2023-05-08T15:25:39.903Z,21.05
2023-05-08T15:28:08.746Z,21.54
2023-05-08T15:30:39.642Z,21.59
2023-05-08T15:33:08.432Z,21.03
2023-05-08T15:35:37.012Z,21.47
2023-05-08T15:38:07.834Z,21.20
2023-05-08T15:40:36.616Z,20.25
2023-05-08T15:43:06.200Z,20.03
2023-05-08T15:45:35.607Z,20.21
2023-05-08T15:48:06.259Z,20.74
2023-05-08T15:50:35.663Z,20.74
2023-05-08T15:53:05.158Z,20.47
2023-05-08T15:55:33.730Z,20.77
2023-05-08T15:58:03.113Z,20.10
2023-05-08T16:00:43.965Z,20.17
2023-05-08T16:03:15.847Z,20.38
2023-05-08T16:05:44.764Z,20.72
2023-05-08T16:08:13.985Z,20.17
2023-05-08T16:10:43.949Z,19.44
2023-05-08T16:13:12.487Z,19.28
2023-05-08T16:15:41.638Z,20.20
2023-05-08T16:18:10.168Z,20.36
2023-05-08T16:20:42.193Z,19.45
2023-05-08T16:23:10.805Z,19.47
2023-05-08T16:25:39.548Z,19.61
2023-05-08T16:28:08.740Z,19.50
2023-05-08T16:30:40.615Z,19.46
2023-05-08T16:33:09.708Z,19.57
2023-05-08T16:35:40.769Z,19.65
2023-05-08T16:38:10.039Z,19.57
2023-05-08T16:40:39.038Z,19.28
2023-05-08T16:43:08.872Z,19.50
2023-05-08T16:45:37.732Z,19.96
2023-05-08T16:48:06.486Z,19.94
2023-05-08T16:50:35.228Z,19.26
2023-05-08T16:53:05.695Z,19.26
2023-05-08T16:55:34.188Z,19.59
2023-05-08T16:58:04.795Z,19.25
2023-05-08T17:00:34.294Z,19.35
2023-05-08T17:03:03.145Z,18.97
2023-05-08T17:05:32.458Z,19.37
2023-05-08T17:08:01.297Z,19.73
2023-05-08T17:10:31.472Z,19.61
2023-05-08T17:13:00.679Z,20.10
2023-05-08T17:15:29.068Z,19.76
2023-05-08T17:17:58.187Z,20.01
2023-05-08T17:20:41.078Z,19.83
2023-05-08T17:23:10.284Z,20.04
2023-05-08T17:25:47.167Z,19.52
2023-05-08T17:28:17.463Z,19.46
2023-05-08T17:30:47.696Z,20.08
2023-05-08T17:33:36.946Z,20.48
2023-05-08T17:36:11.966Z,19.69
2023-05-08T17:38:48.412Z,20.63
2023-05-08T17:41:22.281Z,20.01
2023-05-08T17:43:59.708Z,19.41
2023-05-08T17:46:28.572Z,19.01
2023-05-08T17:48:57.150Z,19.53
2023-05-08T17:51:27.596Z,19.14
2023-05-08T17:53:57.941Z,20.07
2023-05-08T17:57:14.323Z,19.43
2023-05-08T18:00:29.558Z,19.76
2023-05-08T18:03:05.950Z,18.84
2023-05-08T18:05:35.155Z,18.96
2023-05-08T18:08:07.283Z,19.55
2023-05-08T18:10:39.542Z,18.57
2023-05-08T18:13:13.103Z,19.24
2023-05-08T18:15:42.977Z,18.91
2023-05-08T18:18:14.176Z,18.67
2023-05-08T18:20:46.687Z,19.16
2023-05-08T18:23:16.781Z,18.48
2023-05-08T18:26:11.003Z,18.61
2023-05-08T18:28:42.653Z,18.06
2023-05-08T18:31:16.120Z,18.12
2023-05-08T18:33:47.612Z,18.25
2023-05-08T18:36:28.734Z,18.22
2023-05-08T18:38:58.411Z,17.69
2023-05-08T18:41:35.532Z,17.84
2023-05-08T18:44:14.947Z,17.51
2023-05-08T18:46:47.332Z,17.54
2023-05-08T18:49:23.722Z,17.36
2023-05-08T18:51:56.558Z,17.04
2023-05-08T18:54:28.841Z,17.09
2023-05-08T18:56:59.948Z,16.67
2023-05-08T18:59:37.951Z,16.64
2023-05-08T19:02:17.639Z,16.86
2023-05-08T19:05:08.620Z,16.88
2023-05-08T19:07:44.043Z,16.40
2023-05-08T19:10:27.339Z,16.43
2023-05-08T19:13:02.587Z,16.47
2023-05-08T19:15:41.054Z,16.64
2023-05-08T19:18:24.089Z,16.52
2023-05-08T19:20:55.418Z,16.65
2023-05-08T19:23:35.584Z,16.48
2023-05-08T19:26:18.807Z,16.70
2023-05-08T19:28:50.997Z,16.31
2023-05-08T19:31:20.404Z,16.30
2023-05-08T19:33:53.803Z,16.44
2023-05-08T19:36:26.746Z,16.50
2023-05-08T19:38:56.388Z,16.63
2023-05-08T19:41:34.327Z,16.64
2023-05-08T19:44:12.234Z,16.67
2023-05-08T19:46:50.319Z,16.63
2023-05-08T19:49:29.300Z,16.53
2023-05-08T19:52:13.425Z,16.68
2023-05-08T19:54:44.255Z,16.63
2023-05-08T19:57:24.928Z,16.68
2023-05-08T20:00:00.912Z,16.71
2023-05-08T20:02:31.645Z,16.57
2023-05-08T20:05:21.263Z,16.57
2023-05-08T20:07:55.317Z,16.40
2023-05-08T20:10:25.150Z,16.25
2023-05-08T20:12:54.418Z,16.37
2023-05-08T20:15:25.100Z,16.23
2023-05-08T20:17:56.151Z,15.99
2023-05-08T20:20:28.052Z,16.21
2023-05-08T20:22:58.945Z,15.88
2023-05-08T20:25:28.892Z,16.04
2023-05-08T20:28:01.684Z,16.28
2023-05-08T20:33:32.645Z,16.31
2023-05-08T20:36:12.953Z,16.03
2023-05-08T20:38:43.286Z,16.03
2023-05-08T20:41:12.456Z,15.93
2023-05-08T20:43:45.827Z,15.72
2023-05-08T20:46:21.179Z,15.94
2023-05-08T20:49:17.403Z,15.95
2023-05-08T20:51:51.416Z,15.83
2023-05-08T20:54:22.004Z,15.69
2023-05-08T20:56:51.790Z,15.75
2023-05-08T20:59:27.176Z,15.61
2023-05-08T21:01:56.513Z,15.56
2023-05-08T21:04:25.963Z,15.61
2023-05-08T21:06:55.204Z,15.34
2023-05-08T21:09:26.766Z,15.31
2023-05-08T21:11:57.891Z,15.30
2023-05-08T21:14:30.504Z,15.25
2023-05-08T21:17:10.635Z,15.44
2023-05-08T21:19:40.524Z,15.11
2023-05-08T21:22:14.137Z,15.23
2023-05-08T21:24:50.156Z,15.46
2023-05-08T21:27:19.964Z,15.08
2023-05-08T21:29:50.328Z,14.92
2023-05-08T21:32:20.092Z,14.89
2023-05-08T21:34:49.709Z,14.95
2023-05-08T21:37:23.011Z,14.69
2023-05-08T21:39:54.492Z,14.76
2023-05-08T21:42:24.728Z,14.60
2023-05-08T21:44:56.450Z,14.20
2023-05-08T21:47:31.781Z,14.42
2023-05-08T21:50:03.881Z,14.22
2023-05-08T21:52:34.673Z,14.29
2023-05-08T21:55:11.113Z,14.17
2023-05-08T21:57:40.890Z,14.00
2023-05-08T22:00:15.725Z,14.09
2023-05-08T22:02:45.311Z,13.93
2023-05-08T22:05:20.466Z,13.55
2023-05-08T22:07:51.093Z,13.88
2023-05-08T22:10:25.544Z,13.68
2023-05-08T22:13:02.202Z,13.52
2023-05-08T22:15:35.559Z,13.52
2023-05-08T22:18:08.521Z,13.62
2023-05-08T22:20:42.839Z,13.56
2023-05-08T22:23:15.041Z,13.28
2023-05-08T22:25:46.728Z,13.54
2023-05-08T22:28:16.662Z,13.45
2023-05-08T22:30:49.163Z,13.57
2023-05-08T22:33:22.762Z,13.38
2023-05-08T22:35:52.241Z,13.45
2023-05-08T22:38:22.090Z,13.39
2023-05-08T22:41:00.683Z,13.43
2023-05-08T22:43:38.200Z,13.12
2023-05-08T22:46:08.348Z,13.06
2023-05-08T22:48:38.604Z,13.27
2023-05-08T22:51:14.525Z,12.93
2023-05-08T22:53:44.239Z,13.28
2023-05-08T22:56:14.963Z,13.04
2023-05-08T22:58:52.139Z,13.19
2023-05-08T23:01:25.589Z,13.11
2023-05-08T23:03:55.592Z,12.82
2023-05-08T23:06:30.198Z,13.16
2023-05-08T23:09:01.467Z,13.17
2023-05-08T23:11:32.018Z,12.92
2023-05-08T23:14:08.484Z,12.89
2023-05-08T23:16:37.528Z,12.86
2023-05-08T23:19:17.959Z,12.68
2023-05-08T23:21:49.895Z,12.99
2023-05-08T23:24:20.949Z,12.91
2023-05-08T23:27:03.646Z,12.95
2023-05-08T23:29:34.130Z,12.67
2023-05-08T23:32:05.324Z,12.72
2023-05-08T23:34:35.447Z,12.93
2023-05-08T23:37:04.455Z,12.68
2023-05-08T23:39:39.573Z,12.93
2023-05-08T23:42:12.851Z,12.79
2023-05-08T23:44:42.232Z,12.81
2023-05-08T23:47:13.992Z,12.66
2023-05-08T23:49:43.369Z,12.89
2023-05-08T23:52:12.770Z,12.74
2023-05-08T23:54:45.029Z,13.02
2023-05-08T23:57:18.320Z,13.00
2023-05-08T23:59:52.838Z,12.76
